Albany, OK

6:01 AM CDT on October 02, 2014 (GMT -0500)
Duplex, Texas | Change Station
CLOSE
Current Station
Personal Weather Station
Location: Ivanhoe, TX
Elevation: 617 ft
Nearby Weather Stations

Elev 617 ft 33.77 °N, 96.13 °W | Updated 0 second ago

Partly Cloudy
Partly Cloudy
74.2 °F
Feels Like 73 °F
N
0.0
Wind Variable Wind from SSE
Gusts 0.0 mph

Today
High -- | Low -- °F
--% Chance of Precip.
Yesterday
High -- | Low -- °F
Precip. -- in
7:19 AM 7:07 PM
First Quarter, 57% visible
Pressure 29.79 in
Visibility 10.0 miles
Clouds Clear
Heat Index 73 °F
Dew Point 70 °F
Humidity 86%
Rainfall 0.00 in
Snow Depth Not available.
UV 0.0 out of 12
Pollen 9.10 out of 12
Air Quality Not available.
Flu Activity Not available.
METAR KDUA 021055Z AUTO 17006KT 10SM CLR 22/21 A2979 RMK AO2 TSNO

More Conditions Fewer Conditions

Pressure 29.79 in
Visibility 10.0 miles
Clouds Clear
Heat Index 73 °F
Dew Point 70 °F
Humidity 86%
Rainfall 0.00 in
Snow Depth Not available.
UV 0.0 out of 12
Pollen 9.10 out of 12
Air Quality Not available.
Flu Activity Not available.
METAR KDUA 021055Z AUTO 17006KT 10SM CLR 22/21 A2979 RMK AO2 TSNO

More Conditions Fewer Conditions

10-Day Weather Forecast

Almanac

Astronomy

Oct. 02, 2014 Rise Set
Actual Time 7:19 AM CDT 7:07 PM CDT
Civil Twilight 6:54 AM CDT 7:32 PM CDT
Nautical Twilight 6:25 AM CDT 8:01 PM CDT
Astronomical Twilight 5:56 AM CDT 8:30 PM CDT
Moon 3:00 PM CDT 12:53 AM CDT
Length of Visible Light 12h 37m
Length of Day
11h 47m
Tomorrow will be 2m 5s shorter.
First Quarter, 57% of the Moon is Illuminated
Today
First Quarter
Oct 8
Full
Oct 15
Last Quarter
Oct 23
New
Oct 30
First Quarter

Today's Extremes

State Highs State Lows

Community

WunderPhotos

Upload Photos

1,758,215 photos uploaded!

WunderBlogs® & News

Nearby

Snow Depth

Station Depth Elevation
No new snow has been reported.

Earthquake Activity

City Distance Mag. Time & Date
Guthrie, Oklahoma 153 miles 3.0 5:15 PM CDT
2014-10-01
Spencer, Oklahoma 137 miles 3.0 5:12 PM CDT
2014-09-30
Minimum magnitude displayed is 2.5.

Coastal Water Temperatures

Place Temperature
No Stations Reporting

Nearby Weather Stations